sensor_id;sensor_type;location;lat;lon;timestamp;temperature;humidity
4509;DHT22;2267;48.816;9.230;2023-12-20T00:02:14;7.00;99.90
4509;DHT22;2267;48.816;9.230;2023-12-20T00:04:41;7.00;99.90
4509;DHT22;2267;48.816;9.230;2023-12-20T00:07:08;7.10;99.90
4509;DHT22;2267;48.816;9.230;2023-12-20T00:09:35;7.00;99.90
4509;DHT22;2267;48.816;9.230;2023-12-20T00:12:02;7.00;99.90
4509;DHT22;2267;48.816;9.230;2023-12-20T00:14:29;7.10;99.90
4509;DHT22;2267;48.816;9.230;2023-12-20T00:16:56;7.10;99.90
4509;DHT22;2267;48.816;9.230;2023-12-20T00:19:23;7.10;99.90
4509;DHT22;2267;48.816;9.230;2023-12-20T00:21:50;7.10;99.90
4509;DHT22;2267;48.816;9.230;2023-12-20T00:24:17;7.20;99.90
4509;DHT22;2267;48.816;9.230;2023-12-20T00:26:44;7.10;99.90
4509;DHT22;2267;48.816;9.230;2023-12-20T00:29:11;7.20;99.90
4509;DHT22;2267;48.816;9.230;2023-12-20T00:31:38;7.20;99.90
4509;DHT22;2267;48.816;9.230;2023-12-20T00:34:05;7.20;99.90
4509;DHT22;2267;48.816;9.230;2023-12-20T00:36:32;7.20;99.90
4509;DHT22;2267;48.816;9.230;2023-12-20T00:38:59;7.20;99.90
4509;DHT22;2267;48.816;9.230;2023-12-20T00:41:26;7.20;99.90
4509;DHT22;2267;48.816;9.230;2023-12-20T00:43:52;7.20;99.90
4509;DHT22;2267;48.816;9.230;2023-12-20T00:46:19;7.20;99.90
4509;DHT22;2267;48.816;9.230;2023-12-20T00:48:46;7.20;99.90
4509;DHT22;2267;48.816;9.230;2023-12-20T00:51:13;7.20;99.90
4509;DHT22;2267;48.816;9.230;2023-12-20T00:53:40;7.20;99.90
4509;DHT22;2267;48.816;9.230;2023-12-20T00:56:07;7.30;99.90
4509;DHT22;2267;48.816;9.230;2023-12-20T00:58:34;7.20;99.90
4509;DHT22;2267;48.816;9.230;2023-12-20T01:01:01;7.20;99.90
4509;DHT22;2267;48.816;9.230;2023-12-20T01:03:29;7.20;99.90
4509;DHT22;2267;48.816;9.230;2023-12-20T01:05:56;7.20;99.90
4509;DHT22;2267;48.816;9.230;2023-12-20T01:08:23;7.20;99.90
4509;DHT22;2267;48.816;9.230;2023-12-20T01:10:51;7.20;99.90
4509;DHT22;2267;48.816;9.230;2023-12-20T01:13:18;7.30;99.90
4509;DHT22;2267;48.816;9.230;2023-12-20T01:15:45;7.30;99.90
4509;DHT22;2267;48.816;9.230;2023-12-20T01:18:12;7.30;99.90
4509;DHT22;2267;48.816;9.230;2023-12-20T01:20:39;7.20;99.90
4509;DHT22;2267;48.816;9.230;2023-12-20T01:23:06;7.20;99.90
4509;DHT22;2267;48.816;9.230;2023-12-20T01:25:32;7.20;99.90
4509;DHT22;2267;48.816;9.230;2023-12-20T01:27:59;7.30;99.90
4509;DHT22;2267;48.816;9.230;2023-12-20T01:30:26;7.20;99.90
4509;DHT22;2267;48.816;9.230;2023-12-20T01:32:53;7.20;99.90
4509;DHT22;2267;48.816;9.230;2023-12-20T01:35:21;7.20;99.90
4509;DHT22;2267;48.816;9.230;2023-12-20T01:37:47;7.20;99.90
4509;DHT22;2267;48.816;9.230;2023-12-20T01:40:14;7.10;99.90
4509;DHT22;2267;48.816;9.230;2023-12-20T01:42:41;7.20;99.90
4509;DHT22;2267;48.816;9.230;2023-12-20T01:45:08;7.20;99.90
4509;DHT22;2267;48.816;9.230;2023-12-20T01:47:36;7.20;99.90
4509;DHT22;2267;48.816;9.230;2023-12-20T01:50:04;7.20;99.90
4509;DHT22;2267;48.816;9.230;2023-12-20T01:52:32;7.20;99.90
4509;DHT22;2267;48.816;9.230;2023-12-20T01:55:01;7.20;99.90
4509;DHT22;2267;48.816;9.230;2023-12-20T01:57:30;7.20;99.90
4509;DHT22;2267;48.816;9.230;2023-12-20T01:59:58;7.20;99.90
4509;DHT22;2267;48.816;9.230;2023-12-20T02:02:26;7.20;99.90
4509;DHT22;2267;48.816;9.230;2023-12-20T02:04:54;7.20;99.90
4509;DHT22;2267;48.816;9.230;2023-12-20T02:07:21;7.20;99.90
4509;DHT22;2267;48.816;9.230;2023-12-20T02:09:49;7.20;99.90
4509;DHT22;2267;48.816;9.230;2023-12-20T02:12:16;7.20;99.90
4509;DHT22;2267;48.816;9.230;2023-12-20T02:14:43;7.20;99.90
4509;DHT22;2267;48.816;9.230;2023-12-20T02:17:10;7.20;99.90
4509;DHT22;2267;48.816;9.230;2023-12-20T02:19:36;7.20;99.90
4509;DHT22;2267;48.816;9.230;2023-12-20T02:22:10;7.20;99.90
4509;DHT22;2267;48.816;9.230;2023-12-20T02:24:38;7.20;99.90
4509;DHT22;2267;48.816;9.230;2023-12-20T02:27:06;7.20;99.90
4509;DHT22;2267;48.816;9.230;2023-12-20T02:29:34;7.20;99.90
4509;DHT22;2267;48.816;9.230;2023-12-20T02:32:01;7.20;99.90
4509;DHT22;2267;48.816;9.230;2023-12-20T02:34:29;7.20;99.90
4509;DHT22;2267;48.816;9.230;2023-12-20T02:36:56;7.20;99.90
4509;DHT22;2267;48.816;9.230;2023-12-20T02:39:23;7.20;99.90
4509;DHT22;2267;48.816;9.230;2023-12-20T02:41:50;7.20;99.90
4509;DHT22;2267;48.816;9.230;2023-12-20T02:44:17;7.10;99.90
4509;DHT22;2267;48.816;9.230;2023-12-20T02:46:43;7.10;99.90
4509;DHT22;2267;48.816;9.230;2023-12-20T02:49:10;7.10;99.90
4509;DHT22;2267;48.816;9.230;2023-12-20T02:51:37;7.10;99.90
4509;DHT22;2267;48.816;9.230;2023-12-20T02:54:07;7.10;99.90
4509;DHT22;2267;48.816;9.230;2023-12-20T02:56:34;7.10;99.90
4509;DHT22;2267;48.816;9.230;2023-12-20T02:59:01;7.10;99.90
4509;DHT22;2267;48.816;9.230;2023-12-20T03:01:29;7.10;99.90
4509;DHT22;2267;48.816;9.230;2023-12-20T03:03:56;7.10;99.90
4509;DHT22;2267;48.816;9.230;2023-12-20T03:06:23;7.10;99.90
4509;DHT22;2267;48.816;9.230;2023-12-20T03:08:51;7.10;99.90
4509;DHT22;2267;48.816;9.230;2023-12-20T03:11:18;7.10;99.90
4509;DHT22;2267;48.816;9.230;2023-12-20T03:13:45;7.10;99.90
4509;DHT22;2267;48.816;9.230;2023-12-20T03:16:12;7.10;99.90
4509;DHT22;2267;48.816;9.230;2023-12-20T03:18:40;7.10;99.90
4509;DHT22;2267;48.816;9.230;2023-12-20T03:21:07;7.10;99.90
4509;DHT22;2267;48.816;9.230;2023-12-20T03:23:34;7.10;99.90
4509;DHT22;2267;48.816;9.230;2023-12-20T03:26:01;7.10;99.90
4509;DHT22;2267;48.816;9.230;2023-12-20T03:28:29;7.10;99.90
4509;DHT22;2267;48.816;9.230;2023-12-20T03:30:56;7.10;99.90
4509;DHT22;2267;48.816;9.230;2023-12-20T03:33:23;7.10;99.90
4509;DHT22;2267;48.816;9.230;2023-12-20T03:35:50;7.10;99.90
4509;DHT22;2267;48.816;9.230;2023-12-20T03:38:16;7.10;99.90
4509;DHT22;2267;48.816;9.230;2023-12-20T03:40:43;7.10;99.90
4509;DHT22;2267;48.816;9.230;2023-12-20T03:43:10;7.10;99.90
4509;DHT22;2267;48.816;9.230;2023-12-20T03:45:37;7.10;99.90
4509;DHT22;2267;48.816;9.230;2023-12-20T03:48:04;7.20;99.90
4509;DHT22;2267;48.816;9.230;2023-12-20T03:50:32;7.10;99.90
4509;DHT22;2267;48.816;9.230;2023-12-20T03:52:59;7.20;99.90
4509;DHT22;2267;48.816;9.230;2023-12-20T03:55:26;7.10;99.90
4509;DHT22;2267;48.816;9.230;2023-12-20T03:57:53;7.10;99.90
4509;DHT22;2267;48.816;9.230;2023-12-20T04:00:20;7.10;99.90
4509;DHT22;2267;48.816;9.230;2023-12-20T04:02:47;7.10;99.90
4509;DHT22;2267;48.816;9.230;2023-12-20T04:05:14;7.10;99.90
4509;DHT22;2267;48.816;9.230;2023-12-20T04:07:41;7.10;99.90
4509;DHT22;2267;48.816;9.230;2023-12-20T04:10:08;7.10;99.90
4509;DHT22;2267;48.816;9.230;2023-12-20T04:12:35;7.10;99.90
4509;DHT22;2267;48.816;9.230;2023-12-20T04:15:02;7.10;99.90
4509;DHT22;2267;48.816;9.230;2023-12-20T04:17:35;7.10;99.90
4509;DHT22;2267;48.816;9.230;2023-12-20T04:20:03;7.10;99.90
4509;DHT22;2267;48.816;9.230;2023-12-20T04:22:31;7.10;99.90
4509;DHT22;2267;48.816;9.230;2023-12-20T04:24:58;7.10;99.90
4509;DHT22;2267;48.816;9.230;2023-12-20T04:27:24;7.10;99.90
4509;DHT22;2267;48.816;9.230;2023-12-20T04:29:51;7.10;99.90
4509;DHT22;2267;48.816;9.230;2023-12-20T04:32:18;7.20;99.90
4509;DHT22;2267;48.816;9.230;2023-12-20T04:34:45;7.20;99.90
4509;DHT22;2267;48.816;9.230;2023-12-20T04:37:12;7.20;99.90
4509;DHT22;2267;48.816;9.230;2023-12-20T04:39:39;7.20;99.90
4509;DHT22;2267;48.816;9.230;2023-12-20T04:42:07;7.20;99.90
4509;DHT22;2267;48.816;9.230;2023-12-20T04:44:34;7.20;99.90
4509;DHT22;2267;48.816;9.230;2023-12-20T04:47:01;7.20;99.90
4509;DHT22;2267;48.816;9.230;2023-12-20T04:49:27;7.20;99.90
4509;DHT22;2267;48.816;9.230;2023-12-20T04:51:54;7.10;99.90
4509;DHT22;2267;48.816;9.230;2023-12-20T04:54:22;7.20;99.90
4509;DHT22;2267;48.816;9.230;2023-12-20T04:56:49;7.20;99.90
4509;DHT22;2267;48.816;9.230;2023-12-20T04:59:16;7.20;99.90
4509;DHT22;2267;48.816;9.230;2023-12-20T05:01:43;7.20;99.90
4509;DHT22;2267;48.816;9.230;2023-12-20T05:04:10;7.20;99.90
4509;DHT22;2267;48.816;9.230;2023-12-20T05:06:37;7.20;99.90
4509;DHT22;2267;48.816;9.230;2023-12-20T05:09:04;7.20;99.90
4509;DHT22;2267;48.816;9.230;2023-12-20T05:11:31;7.20;99.90
4509;DHT22;2267;48.816;9.230;2023-12-20T05:13:57;7.20;99.90
4509;DHT22;2267;48.816;9.230;2023-12-20T05:16:24;7.20;99.90
4509;DHT22;2267;48.816;9.230;2023-12-20T05:18:51;7.20;99.90
4509;DHT22;2267;48.816;9.230;2023-12-20T05:21:19;7.20;99.90
4509;DHT22;2267;48.816;9.230;2023-12-20T05:23:46;7.20;99.90
4509;DHT22;2267;48.816;9.230;2023-12-20T05:26:13;7.30;99.90
4509;DHT22;2267;48.816;9.230;2023-12-20T05:28:39;7.20;99.90
4509;DHT22;2267;48.816;9.230;2023-12-20T05:31:06;7.20;99.90
4509;DHT22;2267;48.816;9.230;2023-12-20T05:33:33;7.20;99.90
4509;DHT22;2267;48.816;9.230;2023-12-20T05:36:00;7.20;99.90
4509;DHT22;2267;48.816;9.230;2023-12-20T05:38:27;7.20;99.90
4509;DHT22;2267;48.816;9.230;2023-12-20T05:40:54;7.20;99.90
4509;DHT22;2267;48.816;9.230;2023-12-20T05:43:21;7.20;99.90
4509;DHT22;2267;48.816;9.230;2023-12-20T05:45:49;7.20;99.90
4509;DHT22;2267;48.816;9.230;2023-12-20T05:48:16;7.20;99.90
4509;DHT22;2267;48.816;9.230;2023-12-20T05:50:43;7.20;99.90
4509;DHT22;2267;48.816;9.230;2023-12-20T05:53:09;7.20;99.90
4509;DHT22;2267;48.816;9.230;2023-12-20T05:55:36;7.20;99.90
4509;DHT22;2267;48.816;9.230;2023-12-20T05:58:03;7.20;99.90
4509;DHT22;2267;48.816;9.230;2023-12-20T06:00:30;7.20;99.90
4509;DHT22;2267;48.816;9.230;2023-12-20T06:02:57;7.20;99.90
4509;DHT22;2267;48.816;9.230;2023-12-20T06:05:24;7.20;99.90
4509;DHT22;2267;48.816;9.230;2023-12-20T06:07:51;7.20;99.90
4509;DHT22;2267;48.816;9.230;2023-12-20T06:10:18;7.20;99.90
4509;DHT22;2267;48.816;9.230;2023-12-20T06:12:45;7.20;99.90
4509;DHT22;2267;48.816;9.230;2023-12-20T06:15:14;7.20;99.90
4509;DHT22;2267;48.816;9.230;2023-12-20T06:17:41;7.20;99.90
4509;DHT22;2267;48.816;9.230;2023-12-20T06:20:08;7.20;99.90
4509;DHT22;2267;48.816;9.230;2023-12-20T06:22:36;7.30;99.90
4509;DHT22;2267;48.816;9.230;2023-12-20T06:25:04;7.20;99.90
4509;DHT22;2267;48.816;9.230;2023-12-20T06:27:31;7.30;99.90
4509;DHT22;2267;48.816;9.230;2023-12-20T06:29:59;7.30;99.90
4509;DHT22;2267;48.816;9.230;2023-12-20T06:32:26;7.30;99.90
4509;DHT22;2267;48.816;9.230;2023-12-20T06:34:53;7.30;99.90
4509;DHT22;2267;48.816;9.230;2023-12-20T06:37:20;7.30;99.90
4509;DHT22;2267;48.816;9.230;2023-12-20T06:39:47;7.30;99.90
4509;DHT22;2267;48.816;9.230;2023-12-20T06:42:13;7.30;99.90
4509;DHT22;2267;48.816;9.230;2023-12-20T06:44:40;7.30;99.90
4509;DHT22;2267;48.816;9.230;2023-12-20T06:47:07;7.30;99.90
4509;DHT22;2267;48.816;9.230;2023-12-20T06:49:34;7.30;99.90
4509;DHT22;2267;48.816;9.230;2023-12-20T06:52:01;7.30;99.90
4509;DHT22;2267;48.816;9.230;2023-12-20T06:54:28;7.30;99.90
4509;DHT22;2267;48.816;9.230;2023-12-20T06:56:55;7.30;99.90
4509;DHT22;2267;48.816;9.230;2023-12-20T06:59:22;7.30;99.90
4509;DHT22;2267;48.816;9.230;2023-12-20T07:01:49;7.30;99.90
4509;DHT22;2267;48.816;9.230;2023-12-20T07:04:16;7.40;99.90
4509;DHT22;2267;48.816;9.230;2023-12-20T07:06:48;7.40;99.90
4509;DHT22;2267;48.816;9.230;2023-12-20T07:09:18;7.40;99.90
4509;DHT22;2267;48.816;9.230;2023-12-20T07:11:44;7.40;99.90
4509;DHT22;2267;48.816;9.230;2023-12-20T07:14:11;7.50;99.90
4509;DHT22;2267;48.816;9.230;2023-12-20T07:16:38;7.40;99.90
4509;DHT22;2267;48.816;9.230;2023-12-20T07:19:05;7.10;99.90
4509;DHT22;2267;48.816;9.230;2023-12-20T07:21:32;7.50;99.90
4509;DHT22;2267;48.816;9.230;2023-12-20T07:23:59;7.50;99.90
4509;DHT22;2267;48.816;9.230;2023-12-20T07:26:25;7.50;99.90
4509;DHT22;2267;48.816;9.230;2023-12-20T07:28:52;7.50;99.90
4509;DHT22;2267;48.816;9.230;2023-12-20T07:31:19;7.50;99.90
4509;DHT22;2267;48.816;9.230;2023-12-20T07:33:46;7.50;99.90
4509;DHT22;2267;48.816;9.230;2023-12-20T07:36:13;7.50;99.90
4509;DHT22;2267;48.816;9.230;2023-12-20T07:38:40;7.50;99.90
4509;DHT22;2267;48.816;9.230;2023-12-20T07:41:10;7.40;99.90
4509;DHT22;2267;48.816;9.230;2023-12-20T07:43:37;7.40;99.90
4509;DHT22;2267;48.816;9.230;2023-12-20T07:46:08;7.40;99.90
4509;DHT22;2267;48.816;9.230;2023-12-20T07:48:36;7.40;99.90
4509;DHT22;2267;48.816;9.230;2023-12-20T07:51:06;7.40;99.90
4509;DHT22;2267;48.816;9.230;2023-12-20T07:53:34;7.50;99.90
4509;DHT22;2267;48.816;9.230;2023-12-20T07:56:02;7.50;99.90
4509;DHT22;2267;48.816;9.230;2023-12-20T07:58:28;7.40;99.90
4509;DHT22;2267;48.816;9.230;2023-12-20T08:01:16;7.40;99.90
4509;DHT22;2267;48.816;9.230;2023-12-20T08:03:45;7.50;99.90
4509;DHT22;2267;48.816;9.230;2023-12-20T08:06:11;7.50;99.90
4509;DHT22;2267;48.816;9.230;2023-12-20T08:08:38;7.40;99.90
4509;DHT22;2267;48.816;9.230;2023-12-20T08:11:05;7.40;99.90
4509;DHT22;2267;48.816;9.230;2023-12-20T08:13:32;7.40;99.90
4509;DHT22;2267;48.816;9.230;2023-12-20T08:15:59;7.40;99.90
4509;DHT22;2267;48.816;9.230;2023-12-20T08:18:29;7.40;99.90
4509;DHT22;2267;48.816;9.230;2023-12-20T08:20:56;7.40;99.90
4509;DHT22;2267;48.816;9.230;2023-12-20T08:23:23;7.40;99.90
4509;DHT22;2267;48.816;9.230;2023-12-20T08:25:53;7.40;99.90
4509;DHT22;2267;48.816;9.230;2023-12-20T08:28:20;7.40;99.90
4509;DHT22;2267;48.816;9.230;2023-12-20T08:30:46;7.40;99.90
4509;DHT22;2267;48.816;9.230;2023-12-20T08:33:13;7.40;99.90
4509;DHT22;2267;48.816;9.230;2023-12-20T08:35:40;7.40;99.90
4509;DHT22;2267;48.816;9.230;2023-12-20T08:38:07;7.40;99.90
4509;DHT22;2267;48.816;9.230;2023-12-20T08:43:01;7.40;99.90
4509;DHT22;2267;48.816;9.230;2023-12-20T08:45:28;7.40;99.90
4509;DHT22;2267;48.816;9.230;2023-12-20T08:47:54;7.30;99.90
4509;DHT22;2267;48.816;9.230;2023-12-20T08:50:25;7.30;99.90
4509;DHT22;2267;48.816;9.230;2023-12-20T08:52:52;7.30;99.90
4509;DHT22;2267;48.816;9.230;2023-12-20T08:55:19;7.30;99.90
4509;DHT22;2267;48.816;9.230;2023-12-20T08:57:46;7.30;99.90
4509;DHT22;2267;48.816;9.230;2023-12-20T09:00:14;7.30;99.90
4509;DHT22;2267;48.816;9.230;2023-12-20T09:02:41;7.30;99.90
4509;DHT22;2267;48.816;9.230;2023-12-20T09:05:08;7.30;99.90
4509;DHT22;2267;48.816;9.230;2023-12-20T09:07:35;7.40;99.90
4509;DHT22;2267;48.816;9.230;2023-12-20T09:10:02;7.50;99.90
4509;DHT22;2267;48.816;9.230;2023-12-20T09:12:29;7.60;99.90
4509;DHT22;2267;48.816;9.230;2023-12-20T09:14:56;7.80;99.90
4509;DHT22;2267;48.816;9.230;2023-12-20T09:17:23;8.00;99.90
4509;DHT22;2267;48.816;9.230;2023-12-20T09:19:50;8.20;99.90
4509;DHT22;2267;48.816;9.230;2023-12-20T09:22:19;9.60;99.90
4509;DHT22;2267;48.816;9.230;2023-12-20T09:24:46;8.70;99.90
4509;DHT22;2267;48.816;9.230;2023-12-20T09:27:13;8.90;99.90
4509;DHT22;2267;48.816;9.230;2023-12-20T09:29:40;9.10;99.90
4509;DHT22;2267;48.816;9.230;2023-12-20T09:32:06;9.30;99.90
4509;DHT22;2267;48.816;9.230;2023-12-20T09:34:33;9.50;99.90
4509;DHT22;2267;48.816;9.230;2023-12-20T09:37:00;9.70;99.90
4509;DHT22;2267;48.816;9.230;2023-12-20T09:39:27;9.80;99.90
4509;DHT22;2267;48.816;9.230;2023-12-20T09:44:29;9.90;99.90
4509;DHT22;2267;48.816;9.230;2023-12-20T09:46:57;10.00;99.90
4509;DHT22;2267;48.816;9.230;2023-12-20T09:49:26;10.00;99.90
4509;DHT22;2267;48.816;9.230;2023-12-20T09:51:54;10.10;99.90
4509;DHT22;2267;48.816;9.230;2023-12-20T09:54:23;10.00;99.90
4509;DHT22;2267;48.816;9.230;2023-12-20T09:59:17;10.20;99.90
4509;DHT22;2267;48.816;9.230;2023-12-20T10:01:44;10.20;99.90
4509;DHT22;2267;48.816;9.230;2023-12-20T10:04:12;10.30;99.90
4509;DHT22;2267;48.816;9.230;2023-12-20T10:06:55;10.40;99.90
4509;DHT22;2267;48.816;9.230;2023-12-20T10:09:24;10.40;99.90
4509;DHT22;2267;48.816;9.230;2023-12-20T10:11:54;10.50;99.90
4509;DHT22;2267;48.816;9.230;2023-12-20T10:14:21;10.60;99.90
4509;DHT22;2267;48.816;9.230;2023-12-20T10:16:50;10.60;99.90
4509;DHT22;2267;48.816;9.230;2023-12-20T10:19:17;10.70;99.90
4509;DHT22;2267;48.816;9.230;2023-12-20T10:21:45;10.70;99.90
4509;DHT22;2267;48.816;9.230;2023-12-20T10:24:17;10.60;99.90
4509;DHT22;2267;48.816;9.230;2023-12-20T10:26:44;10.50;99.90
4509;DHT22;2267;48.816;9.230;2023-12-20T10:29:11;10.40;99.90
4509;DHT22;2267;48.816;9.230;2023-12-20T10:31:38;10.20;99.90
4509;DHT22;2267;48.816;9.230;2023-12-20T10:34:05;10.00;99.90
4509;DHT22;2267;48.816;9.230;2023-12-20T10:36:33;9.80;99.90
4509;DHT22;2267;48.816;9.230;2023-12-20T10:39:01;9.70;99.90
4509;DHT22;2267;48.816;9.230;2023-12-20T10:41:30;9.50;99.90
4509;DHT22;2267;48.816;9.230;2023-12-20T10:44:02;9.40;99.90
4509;DHT22;2267;48.816;9.230;2023-12-20T10:46:30;9.30;99.90
4509;DHT22;2267;48.816;9.230;2023-12-20T10:48:57;9.20;99.90
4509;DHT22;2267;48.816;9.230;2023-12-20T10:51:25;9.10;99.90
4509;DHT22;2267;48.816;9.230;2023-12-20T10:53:56;9.10;99.90
4509;DHT22;2267;48.816;9.230;2023-12-20T10:56:23;8.90;99.90
4509;DHT22;2267;48.816;9.230;2023-12-20T10:58:50;8.80;99.90
4509;DHT22;2267;48.816;9.230;2023-12-20T11:01:18;8.80;99.90
4509;DHT22;2267;48.816;9.230;2023-12-20T11:03:53;8.70;99.90
4509;DHT22;2267;48.816;9.230;2023-12-20T11:08:58;8.60;99.90
4509;DHT22;2267;48.816;9.230;2023-12-20T11:14:54;8.60;99.90
4509;DHT22;2267;48.816;9.230;2023-12-20T11:17:24;8.50;99.90
4509;DHT22;2267;48.816;9.230;2023-12-20T11:22:25;8.50;99.90
4509;DHT22;2267;48.816;9.230;2023-12-20T11:24:53;8.40;99.90
4509;DHT22;2267;48.816;9.230;2023-12-20T11:27:20;8.40;99.90
4509;DHT22;2267;48.816;9.230;2023-12-20T11:29:55;8.40;99.90
4509;DHT22;2267;48.816;9.230;2023-12-20T11:35:17;8.40;99.90
4509;DHT22;2267;48.816;9.230;2023-12-20T11:37:46;8.30;99.90
4509;DHT22;2267;48.816;9.230;2023-12-20T11:40:17;8.20;99.90
4509;DHT22;2267;48.816;9.230;2023-12-20T11:42:49;8.20;99.90
4509;DHT22;2267;48.816;9.230;2023-12-20T11:45:20;8.10;99.90
4509;DHT22;2267;48.816;9.230;2023-12-20T11:47:50;8.10;99.90
4509;DHT22;2267;48.816;9.230;2023-12-20T11:50:19;8.10;99.90
4509;DHT22;2267;48.816;9.230;2023-12-20T11:52:47;8.00;99.90
4509;DHT22;2267;48.816;9.230;2023-12-20T11:55:14;8.00;99.90
4509;DHT22;2267;48.816;9.230;2023-12-20T11:57:42;8.00;99.90
4509;DHT22;2267;48.816;9.230;2023-12-20T12:00:10;8.00;99.90
4509;DHT22;2267;48.816;9.230;2023-12-20T12:02:37;8.00;99.90
4509;DHT22;2267;48.816;9.230;2023-12-20T12:05:04;8.00;99.90
4509;DHT22;2267;48.816;9.230;2023-12-20T12:07:33;8.00;99.90
4509;DHT22;2267;48.816;9.230;2023-12-20T12:10:00;8.00;99.90
4509;DHT22;2267;48.816;9.230;2023-12-20T12:12:27;8.00;99.90
4509;DHT22;2267;48.816;9.230;2023-12-20T12:14:55;8.10;99.90
4509;DHT22;2267;48.816;9.230;2023-12-20T12:17:23;8.00;99.90
4509;DHT22;2267;48.816;9.230;2023-12-20T12:19:50;8.10;99.90
4509;DHT22;2267;48.816;9.230;2023-12-20T12:22:17;8.10;99.90
4509;DHT22;2267;48.816;9.230;2023-12-20T12:24:47;8.10;99.90
4509;DHT22;2267;48.816;9.230;2023-12-20T12:27:14;8.20;99.90
4509;DHT22;2267;48.816;9.230;2023-12-20T12:29:41;8.20;99.90
4509;DHT22;2267;48.816;9.230;2023-12-20T12:32:26;8.20;99.90
4509;DHT22;2267;48.816;9.230;2023-12-20T12:34:53;8.20;99.90
4509;DHT22;2267;48.816;9.230;2023-12-20T12:37:20;8.20;99.90
4509;DHT22;2267;48.816;9.230;2023-12-20T12:39:47;8.20;99.90
4509;DHT22;2267;48.816;9.230;2023-12-20T12:42:13;8.40;99.90
4509;DHT22;2267;48.816;9.230;2023-12-20T12:44:40;8.60;99.90
4509;DHT22;2267;48.816;9.230;2023-12-20T12:47:07;8.70;99.90
4509;DHT22;2267;48.816;9.230;2023-12-20T12:49:34;8.70;99.90
4509;DHT22;2267;48.816;9.230;2023-12-20T12:52:01;8.80;99.90
4509;DHT22;2267;48.816;9.230;2023-12-20T12:54:29;8.80;99.90
4509;DHT22;2267;48.816;9.230;2023-12-20T12:56:56;8.90;99.90
4509;DHT22;2267;48.816;9.230;2023-12-20T12:59:24;8.80;99.90
4509;DHT22;2267;48.816;9.230;2023-12-20T13:01:51;8.80;99.90
4509;DHT22;2267;48.816;9.230;2023-12-20T13:04:18;8.70;99.90
4509;DHT22;2267;48.816;9.230;2023-12-20T13:06:45;8.70;99.90
4509;DHT22;2267;48.816;9.230;2023-12-20T13:09:13;8.60;99.90
4509;DHT22;2267;48.816;9.230;2023-12-20T13:11:41;8.50;99.90
4509;DHT22;2267;48.816;9.230;2023-12-20T13:14:08;8.50;99.90
4509;DHT22;2267;48.816;9.230;2023-12-20T13:16:37;8.40;99.90
4509;DHT22;2267;48.816;9.230;2023-12-20T13:19:04;8.40;99.90
4509;DHT22;2267;48.816;9.230;2023-12-20T13:21:31;8.40;99.90
4509;DHT22;2267;48.816;9.230;2023-12-20T13:23:58;8.40;99.90
4509;DHT22;2267;48.816;9.230;2023-12-20T13:26:25;8.30;99.90
4509;DHT22;2267;48.816;9.230;2023-12-20T13:28:54;8.30;99.90
4509;DHT22;2267;48.816;9.230;2023-12-20T13:31:21;8.30;99.90
4509;DHT22;2267;48.816;9.230;2023-12-20T13:33:48;8.40;99.90
4509;DHT22;2267;48.816;9.230;2023-12-20T13:36:15;8.40;99.90
4509;DHT22;2267;48.816;9.230;2023-12-20T13:38:43;8.40;99.90
4509;DHT22;2267;48.816;9.230;2023-12-20T13:41:10;8.40;99.90
4509;DHT22;2267;48.816;9.230;2023-12-20T13:43:36;8.40;99.90
4509;DHT22;2267;48.816;9.230;2023-12-20T13:46:03;8.40;99.90
4509;DHT22;2267;48.816;9.230;2023-12-20T13:48:30;8.40;99.90
4509;DHT22;2267;48.816;9.230;2023-12-20T13:50:57;8.40;99.90
4509;DHT22;2267;48.816;9.230;2023-12-20T13:53:24;8.30;99.90
4509;DHT22;2267;48.816;9.230;2023-12-20T13:55:50;8.30;99.90
4509;DHT22;2267;48.816;9.230;2023-12-20T13:58:18;8.20;99.90
4509;DHT22;2267;48.816;9.230;2023-12-20T14:00:45;8.30;99.90
4509;DHT22;2267;48.816;9.230;2023-12-20T14:03:12;8.20;99.90
4509;DHT22;2267;48.816;9.230;2023-12-20T14:05:39;8.20;99.90
4509;DHT22;2267;48.816;9.230;2023-12-20T14:08:06;8.30;99.90
4509;DHT22;2267;48.816;9.230;2023-12-20T14:10:34;8.30;99.90
4509;DHT22;2267;48.816;9.230;2023-12-20T14:13:01;8.20;99.90
4509;DHT22;2267;48.816;9.230;2023-12-20T14:15:28;8.20;99.90
4509;DHT22;2267;48.816;9.230;2023-12-20T14:17:55;8.20;99.90
4509;DHT22;2267;48.816;9.230;2023-12-20T14:20:22;8.10;99.90
4509;DHT22;2267;48.816;9.230;2023-12-20T14:22:49;8.10;99.90
4509;DHT22;2267;48.816;9.230;2023-12-20T14:25:16;8.10;99.90
4509;DHT22;2267;48.816;9.230;2023-12-20T14:27:43;8.10;99.90
4509;DHT22;2267;48.816;9.230;2023-12-20T14:30:12;8.00;99.90
4509;DHT22;2267;48.816;9.230;2023-12-20T14:32:41;8.00;99.90
4509;DHT22;2267;48.816;9.230;2023-12-20T14:35:09;8.10;99.90
4509;DHT22;2267;48.816;9.230;2023-12-20T14:37:37;8.00;99.90
4509;DHT22;2267;48.816;9.230;2023-12-20T14:40:07;8.00;99.90
4509;DHT22;2267;48.816;9.230;2023-12-20T14:42:37;9.70;99.90
4509;DHT22;2267;48.816;9.230;2023-12-20T14:45:04;8.00;99.90
4509;DHT22;2267;48.816;9.230;2023-12-20T14:47:31;8.00;99.90
4509;DHT22;2267;48.816;9.230;2023-12-20T14:49:58;8.00;99.90
4509;DHT22;2267;48.816;9.230;2023-12-20T14:52:25;8.00;99.90
4509;DHT22;2267;48.816;9.230;2023-12-20T14:54:52;7.90;99.90
4509;DHT22;2267;48.816;9.230;2023-12-20T14:57:19;7.90;99.90
4509;DHT22;2267;48.816;9.230;2023-12-20T14:59:46;7.90;99.90
4509;DHT22;2267;48.816;9.230;2023-12-20T15:02:12;7.90;99.90
4509;DHT22;2267;48.816;9.230;2023-12-20T15:04:39;7.90;99.90
4509;DHT22;2267;48.816;9.230;2023-12-20T15:07:07;7.90;99.90
4509;DHT22;2267;48.816;9.230;2023-12-20T15:09:34;7.90;99.90
4509;DHT22;2267;48.816;9.230;2023-12-20T15:12:01;7.90;99.90
4509;DHT22;2267;48.816;9.230;2023-12-20T15:14:28;7.90;99.90
4509;DHT22;2267;48.816;9.230;2023-12-20T15:16:55;7.90;99.90
4509;DHT22;2267;48.816;9.230;2023-12-20T15:19:22;7.90;99.90
4509;DHT22;2267;48.816;9.230;2023-12-20T15:21:49;8.00;99.90
4509;DHT22;2267;48.816;9.230;2023-12-20T15:24:17;7.90;99.90
4509;DHT22;2267;48.816;9.230;2023-12-20T15:26:46;7.90;99.90
4509;DHT22;2267;48.816;9.230;2023-12-20T15:29:13;7.90;99.90
4509;DHT22;2267;48.816;9.230;2023-12-20T15:31:43;7.90;99.90
4509;DHT22;2267;48.816;9.230;2023-12-20T15:34:10;7.90;99.90
4509;DHT22;2267;48.816;9.230;2023-12-20T15:36:38;7.90;99.90
4509;DHT22;2267;48.816;9.230;2023-12-20T15:39:06;8.60;99.90
4509;DHT22;2267;48.816;9.230;2023-12-20T15:41:35;7.90;99.90
4509;DHT22;2267;48.816;9.230;2023-12-20T15:44:02;7.90;99.90
4509;DHT22;2267;48.816;9.230;2023-12-20T15:46:29;7.90;99.90
4509;DHT22;2267;48.816;9.230;2023-12-20T15:48:56;7.90;99.90
4509;DHT22;2267;48.816;9.230;2023-12-20T15:51:23;7.80;99.90
4509;DHT22;2267;48.816;9.230;2023-12-20T15:53:51;7.90;99.90
4509;DHT22;2267;48.816;9.230;2023-12-20T15:56:18;7.90;99.90
4509;DHT22;2267;48.816;9.230;2023-12-20T15:58:45;7.80;99.90
4509;DHT22;2267;48.816;9.230;2023-12-20T16:01:14;7.80;99.90
4509;DHT22;2267;48.816;9.230;2023-12-20T16:03:41;7.80;99.90
4509;DHT22;2267;48.816;9.230;2023-12-20T16:06:19;7.80;99.90
4509;DHT22;2267;48.816;9.230;2023-12-20T16:08:48;7.80;99.90
4509;DHT22;2267;48.816;9.230;2023-12-20T16:11:15;7.80;99.90
4509;DHT22;2267;48.816;9.230;2023-12-20T16:13:42;7.80;99.90
4509;DHT22;2267;48.816;9.230;2023-12-20T16:16:09;7.80;99.90
4509;DHT22;2267;48.816;9.230;2023-12-20T16:18:36;7.70;99.90
4509;DHT22;2267;48.816;9.230;2023-12-20T16:21:04;7.70;99.90
4509;DHT22;2267;48.816;9.230;2023-12-20T16:23:31;7.70;99.90
4509;DHT22;2267;48.816;9.230;2023-12-20T16:25:58;7.60;99.90
4509;DHT22;2267;48.816;9.230;2023-12-20T16:28:25;7.60;99.90
4509;DHT22;2267;48.816;9.230;2023-12-20T16:30:52;7.50;99.90
4509;DHT22;2267;48.816;9.230;2023-12-20T16:33:23;7.60;99.90
4509;DHT22;2267;48.816;9.230;2023-12-20T16:35:50;7.50;99.90
4509;DHT22;2267;48.816;9.230;2023-12-20T16:38:17;7.50;99.90